Time;durP1;ratioP1;P1;durP2;ratioP2;P2;SDS_P1;SDS_P2;PMS_P1;PMS_P2;Temp;Humidity;BMP_temperature;BMP_pressure;BME280_temperature;BME280_humidity;BME280_pressure;Samples;Min_cycle;Max_cycle;Signal;HPM_P1;HPM_P2
2021/10/02 00:36:00;;;;;;;9.48;3.92;;;;;;;;;;5021913;28;20064;-60
2021/10/02 00:41:22;;;;;;;9.25;3.80;;;;;;;;;;5051565;28;20041;-62
2021/10/02 00:46:35;;;;;;;9.82;4.88;;;;;;;;;;4998443;28;20052;-60
2021/10/02 00:49:02;;;;;;;9.23;4.82;;;;;;;;;;5042153;28;20047;-60
2021/10/02 00:51:31;;;;;;;12.55;5.85;;;;;;;;;;5038087;28;20087;-60
2021/10/02 00:53:57;;;;;;;17.80;5.88;;;;;;;;;;5033438;28;20048;-62
2021/10/02 00:56:24;;;;;;;12.30;5.65;;;;;;;;;;5034294;28;20068;-61
2021/10/02 00:58:51;;;;;;;8.43;4.22;;;;;;;;;;5045269;28;20052;-61
2021/10/02 01:01:23;;;;;;;11.10;4.80;;;;;;;;;;5063436;28;20044;-60
2021/10/02 01:03:53;;;;;;;15.45;5.22;;;;;;;;;;5040935;28;20045;-60
2021/10/02 01:06:29;;;;;;;12.35;5.45;;;;;;;;;;5045174;28;20059;-59
2021/10/02 01:08:59;;;;;;;9.10;5.15;;;;;;;;;;5053035;28;20173;-60
2021/10/02 01:11:33;;;;;;;12.20;5.05;;;;;;;;;;5053869;28;20071;-63
2021/10/02 01:14:07;;;;;;;9.32;5.00;;;;;;;;;;5044003;28;20041;-62
2021/10/02 01:16:35;;;;;;;9.02;4.85;;;;;;;;;;5026834;28;20029;-60
2021/10/02 01:19:09;;;;;;;8.50;4.78;;;;;;;;;;5029750;28;20037;-61
2021/10/02 01:21:52;;;;;;;9.27;5.40;;;;;;;;;;5025037;28;20045;-59
2021/10/02 01:24:42;;;;;;;10.80;5.88;;;;;;;;;;5036384;28;20102;-61
2021/10/02 01:27:24;;;;;;;14.43;5.50;;;;;;;;;;5042577;28;20144;-63
2021/10/02 01:29:53;;;;;;;12.75;6.40;;;;;;;;;;5040663;28;20056;-59
2021/10/02 01:32:28;;;;;;;16.88;7.65;;;;;;;;;;5043557;28;20064;-61
2021/10/02 01:35:05;;;;;;;16.20;6.97;;;;;;;;;;5077565;28;20044;-60
2021/10/02 01:37:44;;;;;;;13.13;6.75;;;;;;;;;;5053655;28;20052;-62
2021/10/02 01:48:32;;;;;;;15.73;7.00;;;;;;;;;;5041967;28;20048;-59
2021/10/02 01:51:00;;;;;;;14.27;7.10;;;;;;;;;;5060482;28;20056;-60
2021/10/02 01:53:33;;;;;;;13.90;7.07;;;;;;;;;;5059269;28;20041;-61
2021/10/02 01:56:01;;;;;;;16.52;7.90;;;;;;;;;;5059988;28;20048;-58
2021/10/02 01:58:27;;;;;;;13.15;7.15;;;;;;;;;;5061466;28;20047;-61
2021/10/02 02:00:56;;;;;;;13.43;6.55;;;;;;;;;;5038669;28;20048;-61
2021/10/02 02:03:22;;;;;;;;;;;;;;;;;;5039943;28;20115;-60
2021/10/02 02:05:49;;;;;;;11.95;6.45;;;;;;;;;;5052027;28;19916;-58
2021/10/02 02:08:17;;;;;;;14.93;6.45;;;;;;;;;;5060437;28;20037;-62
2021/10/02 02:10:44;;;;;;;14.70;7.30;;;;;;;;;;5047966;28;20033;-61
2021/10/02 02:13:12;;;;;;;12.93;6.88;;;;;;;;;;5062123;28;20053;-59
2021/10/02 02:15:39;;;;;;;12.45;6.45;;;;;;;;;;5057567;28;20058;-59
2021/10/02 02:18:09;;;;;;;12.45;6.95;;;;;;;;;;5058361;28;20119;-60
2021/10/02 02:20:37;;;;;;;15.95;7.20;;;;;;;;;;5027517;28;20041;-60
2021/10/02 02:23:04;;;;;;;11.13;6.35;;;;;;;;;;5020745;28;20045;-59
2021/10/02 02:25:30;;;;;;;12.75;7.22;;;;;;;;;;5023713;28;20057;-61
2021/10/02 02:27:58;;;;;;;19.33;6.78;;;;;;;;;;5040956;28;20053;-59
2021/10/02 02:30:24;;;;;;;15.85;7.50;;;;;;;;;;5042761;28;20041;-62
2021/10/02 02:32:51;;;;;;;12.95;7.18;;;;;;;;;;5064684;28;20048;-63
2021/10/02 02:35:20;;;;;;;14.02;7.22;;;;;;;;;;5038086;28;20049;-60
2021/10/02 02:37:47;;;;;;;15.73;7.35;;;;;;;;;;5040102;28;20130;-61
2021/10/02 02:40:13;;;;;;;16.83;7.57;;;;;;;;;;5041451;28;20065;-59
2021/10/02 02:42:40;;;;;;;15.50;7.22;;;;;;;;;;5033408;28;20045;-60
2021/10/02 02:45:14;;;;;;;13.18;7.40;;;;;;;;;;5022568;28;20041;-60
2021/10/02 02:47:42;;;;;;;20.98;8.10;;;;;;;;;;5053312;28;20041;-61
2021/10/02 02:50:10;;;;;;;16.05;8.20;;;;;;;;;;5051198;28;20040;-59
2021/10/02 02:52:42;;;;;;;17.40;8.10;;;;;;;;;;5038923;28;20045;-59
2021/10/02 02:55:11;;;;;;;15.23;7.40;;;;;;;;;;5061525;28;20040;-60
2021/10/02 02:57:39;;;;;;;22.70;8.23;;;;;;;;;;5044470;28;20069;-59
2021/10/02 03:00:10;;;;;;;18.83;8.32;;;;;;;;;;5023523;28;20041;-60
2021/10/02 03:02:37;;;;;;;14.68;7.68;;;;;;;;;;5045977;28;20081;-58
2021/10/02 03:05:04;;;;;;;17.05;8.82;;;;;;;;;;5054411;28;20045;-59
2021/10/02 03:07:32;;;;;;;15.23;7.88;;;;;;;;;;5038133;28;20134;-58
2021/10/02 03:10:06;;;;;;;17.85;7.97;;;;;;;;;;5046057;28;20041;-59
2021/10/02 03:12:34;;;;;;;17.70;8.32;;;;;;;;;;5069786;28;20051;-58
2021/10/02 03:15:02;;;;;;;15.35;7.55;;;;;;;;;;5062598;28;20044;-59
2021/10/02 03:17:30;;;;;;;17.48;8.00;;;;;;;;;;5054583;28;20061;-58
2021/10/02 03:19:58;;;;;;;13.52;7.25;;;;;;;;;;5041897;28;20122;-60
2021/10/02 03:22:27;;;;;;;14.57;7.83;;;;;;;;;;5042154;28;20048;-59
2021/10/02 03:24:54;;;;;;;18.17;7.90;;;;;;;;;;5080296;28;20040;-60
2021/10/02 03:27:22;;;;;;;13.23;7.60;;;;;;;;;;5044286;28;20048;-61
2021/10/02 03:29:49;;;;;;;14.30;8.10;;;;;;;;;;5043726;28;20045;-61
2021/10/02 03:32:15;;;;;;;16.40;7.43;;;;;;;;;;5027224;28;20058;-60
2021/10/02 03:34:42;;;;;;;13.30;7.15;;;;;;;;;;5043329;28;20049;-62
2021/10/02 03:37:09;;;;;;;15.15;7.93;;;;;;;;;;5060493;28;20036;-62
2021/10/02 03:39:35;;;;;;;14.05;7.22;;;;;;;;;;5053262;28;20048;-59
2021/10/02 03:42:10;;;;;;;16.38;7.88;;;;;;;;;;5044079;28;20045;-60
2021/10/02 03:44:39;;;;;;;16.17;8.35;;;;;;;;;;5055030;28;20058;-61
2021/10/02 03:47:05;;;;;;;16.42;7.75;;;;;;;;;;5065846;28;20129;-62
2021/10/02 03:49:32;;;;;;;17.60;8.65;;;;;;;;;;5063629;28;20090;-61
2021/10/02 03:51:58;;;;;;;15.43;7.95;;;;;;;;;;5069946;28;20052;-62
2021/10/02 03:54:25;;;;;;;20.92;8.38;;;;;;;;;;5051014;28;20118;-61
2021/10/02 03:56:52;;;;;;;16.38;8.60;;;;;;;;;;5064701;28;20162;-56
2021/10/02 03:59:18;;;;;;;18.55;8.25;;;;;;;;;;5062544;28;20105;-60
2021/10/02 04:01:46;;;;;;;17.17;7.72;;;;;;;;;;5081421;28;20041;-61
2021/10/02 04:04:13;;;;;;;15.35;8.23;;;;;;;;;;5080820;28;20033;-59
2021/10/02 04:06:40;;;;;;;17.13;8.02;;;;;;;;;;5065967;28;20040;-58
2021/10/02 04:09:06;;;;;;;15.73;8.45;;;;;;;;;;5058800;28;20056;-59
2021/10/02 04:11:33;;;;;;;17.92;8.43;;;;;;;;;;5056001;28;20148;-61
2021/10/02 04:14:02;;;;;;;16.80;8.75;;;;;;;;;;5079819;28;20036;-60
2021/10/02 04:16:28;;;;;;;18.50;8.82;;;;;;;;;;5063418;28;20041;-63
2021/10/02 04:18:57;;;;;;;18.13;8.93;;;;;;;;;;5046195;28;20029;-60
2021/10/02 04:21:28;;;;;;;21.88;8.85;;;;;;;;;;5045633;28;20041;-59
2021/10/02 04:23:54;;;;;;;17.70;8.65;;;;;;;;;;5047694;28;20057;-63
2021/10/02 04:26:23;;;;;;;21.75;8.77;;;;;;;;;;5037090;28;20045;-62
2021/10/02 04:28:49;;;;;;;20.63;9.43;;;;;;;;;;5031972;28;20036;-62
2021/10/02 04:31:17;;;;;;;21.95;9.65;;;;;;;;;;5054772;28;20054;-61
2021/10/02 04:33:45;;;;;;;22.20;8.23;;;;;;;;;;5065828;28;20068;-60
2021/10/02 04:36:13;;;;;;;21.60;8.85;;;;;;;;;;5061532;28;20040;-60
2021/10/02 04:38:40;;;;;;;18.13;9.05;;;;;;;;;;5083368;28;20044;-63
2021/10/02 04:41:08;;;;;;;18.73;9.77;;;;;;;;;;5056971;28;20102;-59
2021/10/02 04:43:37;;;;;;;19.85;9.38;;;;;;;;;;5062426;28;20056;-62
2021/10/02 04:46:03;;;;;;;17.75;8.52;;;;;;;;;;5045488;28;20049;-63
2021/10/02 04:48:30;;;;;;;21.60;9.95;;;;;;;;;;5044684;28;20029;-62
2021/10/02 04:50:57;;;;;;;22.55;10.45;;;;;;;;;;5058915;28;20048;-59
2021/10/02 04:53:25;;;;;;;18.40;9.70;;;;;;;;;;5044670;28;20048;-59
2021/10/02 04:55:54;;;;;;;19.90;10.07;;;;;;;;;;5043876;28;20041;-61
2021/10/02 04:58:21;;;;;;;21.23;9.85;;;;;;;;;;5082982;28;20040;-62
2021/10/02 05:00:47;;;;;;;23.70;10.60;;;;;;;;;;5051983;28;20053;-55
2021/10/02 05:03:14;;;;;;;20.88;10.30;;;;;;;;;;5047648;28;20041;-59
2021/10/02 05:05:40;;;;;;;19.52;10.43;;;;;;;;;;5058435;28;20047;-61
2021/10/02 05:08:07;;;;;;;19.50;9.30;;;;;;;;;;5067188;28;20056;-63
2021/10/02 05:10:35;;;;;;;25.55;10.43;;;;;;;;;;5050862;28;20052;-62
2021/10/02 05:13:02;;;;;;;23.08;11.05;;;;;;;;;;5022764;28;20291;-61
2021/10/02 05:15:28;;;;;;;22.70;10.73;;;;;;;;;;5008815;28;20068;-59
2021/10/02 05:17:55;;;;;;;27.50;10.20;;;;;;;;;;5035139;28;20049;-59
2021/10/02 05:20:22;;;;;;;17.38;9.90;;;;;;;;;;5056935;28;20368;-63
2021/10/02 05:22:48;;;;;;;20.95;10.23;;;;;;;;;;5047069;28;20045;-59
2021/10/02 05:25:15;;;;;;;23.80;10.40;;;;;;;;;;5037962;28;20021;-61
2021/10/02 05:27:43;;;;;;;17.67;8.98;;;;;;;;;;5034264;28;20053;-61
2021/10/02 05:30:10;;;;;;;26.00;10.90;;;;;;;;;;5034194;28;20041;-59
2021/10/02 05:32:36;;;;;;;22.30;9.98;;;;;;;;;;5054123;28;20049;-63
2021/10/02 05:35:03;;;;;;;19.33;9.93;;;;;;;;;;5041384;28;20044;-61
2021/10/02 05:37:29;;;;;;;18.58;9.68;;;;;;;;;;5040009;28;20118;-59
2021/10/02 05:39:56;;;;;;;18.27;9.07;;;;;;;;;;5052786;28;20131;-62
2021/10/02 05:42:23;;;;;;;18.63;9.05;;;;;;;;;;5053655;28;20055;-62
2021/10/02 05:44:51;;;;;;;20.95;9.07;;;;;;;;;;5040797;28;20049;-62
2021/10/02 05:47:17;;;;;;;20.23;8.60;;;;;;;;;;5041824;28;20111;-61
2021/10/02 05:49:44;;;;;;;16.98;9.00;;;;;;;;;;5037997;28;20049;-60
2021/10/02 05:52:12;;;;;;;17.73;9.57;;;;;;;;;;5042609;28;20114;-62
2021/10/02 05:54:38;;;;;;;19.45;8.70;;;;;;;;;;5040345;28;20037;-61
2021/10/02 05:57:05;;;;;;;20.52;9.05;;;;;;;;;;5043480;28;20045;-60
2021/10/02 05:59:32;;;;;;;19.10;9.15;;;;;;;;;;5039986;28;20048;-59
2021/10/02 06:02:00;;;;;;;21.10;9.40;;;;;;;;;;5043985;28;20041;-59
2021/10/02 06:04:26;;;;;;;18.92;9.07;;;;;;;;;;5033554;28;20041;-60
2021/10/02 06:06:53;;;;;;;19.65;9.55;;;;;;;;;;5040737;28;20047;-62
2021/10/02 06:09:20;;;;;;;23.15;10.13;;;;;;;;;;5036172;28;20040;-59
2021/10/02 06:11:46;;;;;;;19.38;9.43;;;;;;;;;;5050058;28;20064;-62
2021/10/02 06:14:15;;;;;;;19.25;10.07;;;;;;;;;;5053681;28;20049;-60
2021/10/02 06:16:42;;;;;;;18.38;9.38;;;;;;;;;;5040795;28;20122;-61
2021/10/02 06:19:10;;;;;;;23.95;9.77;;;;;;;;;;5039925;28;20049;-60
2021/10/02 06:21:37;;;;;;;22.52;9.35;;;;;;;;;;5059629;28;20048;-61
2021/10/02 06:24:04;;;;;;;19.38;9.40;;;;;;;;;;5057721;28;20044;-60
2021/10/02 06:26:32;;;;;;;22.20;10.50;;;;;;;;;;5041167;28;20048;-61
2021/10/02 06:28:59;;;;;;;;;;;;;;;;;;5037697;28;20033;-61
2021/10/02 06:31:25;;;;;;;17.85;8.68;;;;;;;;;;5052527;28;19928;-60
2021/10/02 06:33:52;;;;;;;18.13;8.68;;;;;;;;;;5059471;28;20056;-59
2021/10/02 06:36:20;;;;;;;23.25;9.60;;;;;;;;;;5035316;28;20056;-58
2021/10/02 06:38:47;;;;;;;27.83;8.73;;;;;;;;;;5024277;28;20049;-60
2021/10/02 06:41:13;;;;;;;19.90;8.80;;;;;;;;;;5033678;28;20036;-61
2021/10/02 06:43:40;;;;;;;18.70;9.25;;;;;;;;;;5037903;28;20048;-58
2021/10/02 06:46:06;;;;;;;20.80;9.05;;;;;;;;;;5050642;28;20083;-55
2021/10/02 06:48:33;;;;;;;19.90;9.20;;;;;;;;;;5059412;28;20047;-61
2021/10/02 06:51:00;;;;;;;19.67;9.20;;;;;;;;;;5045113;28;20041;-60
2021/10/02 06:53:28;;;;;;;18.33;8.57;;;;;;;;;;5059828;28;20067;-61
2021/10/02 06:55:54;;;;;;;19.87;9.10;;;;;;;;;;5054699;28;20053;-61
2021/10/02 06:58:21;;;;;;;15.43;8.90;;;;;;;;;;5060594;28;20051;-60
2021/10/02 07:00:49;;;;;;;18.33;8.32;;;;;;;;;;5052763;28;20134;-60
2021/10/02 07:03:15;;;;;;;16.87;9.10;;;;;;;;;;5056761;28;20047;-61
2021/10/02 07:05:42;;;;;;;18.17;9.05;;;;;;;;;;5064394;28;20041;-60
2021/10/02 07:08:08;;;;;;;18.90;8.93;;;;;;;;;;5057258;28;20082;-58
2021/10/02 07:10:37;;;;;;;18.08;8.48;;;;;;;;;;5061858;28;20055;-60
2021/10/02 07:13:03;;;;;;;20.90;8.75;;;;;;;;;;5075597;28;20048;-61
2021/10/02 07:15:30;;;;;;;20.33;8.65;;;;;;;;;;5079799;28;20106;-60
2021/10/02 07:17:56;;;;;;;20.25;9.38;;;;;;;;;;5057477;28;20052;-59
2021/10/02 07:20:25;;;;;;;17.83;9.02;;;;;;;;;;5058212;28;20041;-60
2021/10/02 07:22:51;;;;;;;;;;;;;;;;;;5074129;28;20032;-60
2021/10/02 07:25:18;;;;;;;20.88;8.70;;;;;;;;;;5080216;28;19936;-63
2021/10/02 07:27:46;;;;;;;23.58;9.45;;;;;;;;;;5061305;28;20051;-61
2021/10/02 07:30:19;;;;;;;21.37;10.07;;;;;;;;;;5065118;28;20037;-60
2021/10/02 07:32:46;;;;;;;21.15;9.07;;;;;;;;;;5070037;28;20045;-61
2021/10/02 07:35:14;;;;;;;16.60;9.15;;;;;;;;;;5043251;28;20073;-63
2021/10/02 07:37:40;;;;;;;17.77;8.97;;;;;;;;;;5046181;28;20092;-62
2021/10/02 07:40:10;;;;;;;18.85;8.57;;;;;;;;;;5080982;28;20283;-57
2021/10/02 07:42:37;;;;;;;18.38;7.70;;;;;;;;;;5042272;28;20122;-61
2021/10/02 07:45:06;;;;;;;14.80;7.80;;;;;;;;;;5075514;28;20121;-59
2021/10/02 07:47:34;;;;;;;22.98;9.45;;;;;;;;;;5059087;28;20060;-60
2021/10/02 07:50:01;;;;;;;19.52;8.80;;;;;;;;;;5061108;28;20040;-59
2021/10/02 07:52:28;;;;;;;18.70;7.75;;;;;;;;;;5060435;28;20041;-57
2021/10/02 07:54:54;;;;;;;15.95;8.45;;;;;;;;;;5042053;28;20052;-59
2021/10/02 07:57:21;;;;;;;16.23;7.55;;;;;;;;;;5058566;28;20049;-60
2021/10/02 07:59:50;;;;;;;17.70;8.35;;;;;;;;;;5056082;28;20045;-61
2021/10/02 08:02:20;;;;;;;19.85;7.65;;;;;;;;;;5063336;28;20040;-58
2021/10/02 08:04:46;;;;;;;17.30;7.85;;;;;;;;;;5042465;28;20121;-61
2021/10/02 08:07:14;;;;;;;16.10;7.00;;;;;;;;;;5043135;28;20037;-59
2021/10/02 08:09:41;;;;;;;12.60;6.82;;;;;;;;;;5052010;28;20028;-59
2021/10/02 08:12:08;;;;;;;22.02;7.55;;;;;;;;;;5061292;28;20117;-59
2021/10/02 08:14:34;;;;;;;17.08;7.53;;;;;;;;;;5057617;28;20067;-59
2021/10/02 08:17:01;;;;;;;18.75;7.50;;;;;;;;;;5062409;28;20048;-59
2021/10/02 08:19:30;;;;;;;14.30;7.00;;;;;;;;;;5048840;28;20029;-61
2021/10/02 08:21:57;;;;;;;11.43;6.05;;;;;;;;;;5041804;28;20061;-59
2021/10/02 08:24:26;;;;;;;13.40;6.53;;;;;;;;;;5037854;28;20130;-60
2021/10/02 08:26:53;;;;;;;15.77;7.07;;;;;;;;;;5042488;28;20118;-59
2021/10/02 08:29:20;;;;;;;14.18;6.57;;;;;;;;;;5040294;28;20041;-62
2021/10/02 08:31:47;;;;;;;22.98;7.43;;;;;;;;;;5043136;28;20037;-61
2021/10/02 08:34:14;;;;;;;17.48;7.55;;;;;;;;;;5039557;28;20030;-61
2021/10/02 08:36:45;;;;;;;17.88;7.38;;;;;;;;;;5061090;28;20126;-59
2021/10/02 08:39:11;;;;;;;17.30;7.45;;;;;;;;;;5062347;28;20045;-61
2021/10/02 08:41:39;;;;;;;16.52;7.00;;;;;;;;;;5047613;28;20051;-60
2021/10/02 08:44:07;;;;;;;16.10;7.05;;;;;;;;;;5062285;28;20037;-60
2021/10/02 08:46:34;;;;;;;16.92;7.75;;;;;;;;;;5042181;28;20049;-60
2021/10/02 08:49:12;;;;;;;14.57;7.30;;;;;;;;;;5040598;28;20150;-61
2021/10/02 08:51:41;;;;;;;14.63;7.03;;;;;;;;;;5028217;28;20116;-62
2021/10/02 08:54:09;;;;;;;18.20;7.85;;;;;;;;;;5021830;28;20038;-59
2021/10/02 08:56:38;;;;;;;27.98;10.35;;;;;;;;;;5007788;28;20054;-59
2021/10/02 08:59:04;;;;;;;15.50;6.10;;;;;;;;;;5022669;28;20122;-60
2021/10/02 09:01:33;;;;;;;14.20;5.43;;;;;;;;;;5035041;28;20044;-61
2021/10/02 09:04:00;;;;;;;17.60;4.97;;;;;;;;;;5009359;28;20144;-61
2021/10/02 09:06:26;;;;;;;12.75;4.72;;;;;;;;;;5022784;28;20052;-59
2021/10/02 09:08:53;;;;;;;13.27;4.75;;;;;;;;;;5020801;28;20034;-60
2021/10/02 09:11:22;;;;;;;13.43;5.15;;;;;;;;;;5013503;28;20054;-60
2021/10/02 09:13:49;;;;;;;13.35;5.00;;;;;;;;;;5002605;28;20054;-59
2021/10/02 09:16:15;;;;;;;10.80;5.35;;;;;;;;;;5007860;28;20139;-59
2021/10/02 09:18:42;;;;;;;12.50;5.78;;;;;;;;;;5020951;28;20064;-58
2021/10/02 09:21:09;;;;;;;19.10;5.25;;;;;;;;;;5017748;28;20064;-59
2021/10/02 09:23:40;;;;;;;12.05;4.95;;;;;;;;;;5007039;28;20048;-59
2021/10/02 09:26:07;;;;;;;8.25;4.28;;;;;;;;;;5011777;28;20055;-62
2021/10/02 09:28:39;;;;;;;16.80;4.72;;;;;;;;;;5024341;28;20119;-61
2021/10/02 09:31:07;;;;;;;17.48;4.70;;;;;;;;;;5039490;28;20064;-60
2021/10/02 09:33:34;;;;;;;17.42;5.60;;;;;;;;;;5020933;28;20053;-61
2021/10/02 09:36:01;;;;;;;17.55;5.47;;;;;;;;;;5013076;28;20038;-59
2021/10/02 09:38:27;;;;;;;11.05;5.20;;;;;;;;;;5012084;28;20054;-59
2021/10/02 09:40:55;;;;;;;17.88;6.05;;;;;;;;;;5020983;28;20107;-61
2021/10/02 09:43:21;;;;;;;14.68;5.50;;;;;;;;;;5017708;28;20123;-61
2021/10/02 09:45:50;;;;;;;13.93;5.93;;;;;;;;;;5021068;28;20066;-60
2021/10/02 09:48:18;;;;;;;15.68;5.57;;;;;;;;;;5008021;28;20049;-61
2021/10/02 09:50:46;;;;;;;11.75;5.47;;;;;;;;;;5012595;28;20038;-60
2021/10/02 09:53:13;;;;;;;12.18;5.55;;;;;;;;;;5025114;28;20052;-61
2021/10/02 09:55:40;;;;;;;12.95;5.80;;;;;;;;;;5041384;28;20029;-59
2021/10/02 09:58:08;;;;;;;20.08;4.88;;;;;;;;;;5038895;28;20076;-59
2021/10/02 10:00:37;;;;;;;15.45;5.50;;;;;;;;;;5040544;28;20118;-61
2021/10/02 10:03:06;;;;;;;13.57;5.28;;;;;;;;;;5036704;28;20077;-59
2021/10/02 10:05:34;;;;;;;13.00;4.63;;;;;;;;;;5021111;28;20037;-59
2021/10/02 10:08:01;;;;;;;14.35;4.65;;;;;;;;;;5018926;28;20056;-60
2021/10/02 10:10:29;;;;;;;12.02;4.47;;;;;;;;;;5021725;28;20037;-59
2021/10/02 10:12:56;;;;;;;14.90;4.38;;;;;;;;;;5019665;28;20046;-58
2021/10/02 10:15:27;;;;;;;11.23;3.88;;;;;;;;;;5019395;28;20135;-59
2021/10/02 10:17:54;;;;;;;10.10;4.03;;;;;;;;;;5021969;28;20073;-59
2021/10/02 10:20:29;;;;;;;10.57;3.50;;;;;;;;;;5018625;28;20111;-61
2021/10/02 10:22:56;;;;;;;11.02;4.15;;;;;;;;;;5021183;28;20056;-61
2021/10/02 10:25:22;;;;;;;11.07;4.25;;;;;;;;;;5032697;28;20056;-59
2021/10/02 10:27:51;;;;;;;9.18;3.60;;;;;;;;;;5041569;28;20033;-59
2021/10/02 10:30:21;;;;;;;8.88;3.35;;;;;;;;;;5034883;28;20041;-59
2021/10/02 10:32:56;;;;;;;8.50;3.20;;;;;;;;;;5055667;28;20052;-61
2021/10/02 10:35:24;;;;;;;8.63;3.47;;;;;;;;;;5054682;28;20048;-61
2021/10/02 10:37:51;;;;;;;10.65;3.22;;;;;;;;;;5060330;28;20042;-59
2021/10/02 10:40:19;;;;;;;11.43;3.50;;;;;;;;;;5064106;28;20046;-60
2021/10/02 10:42:46;;;;;;;11.65;3.38;;;;;;;;;;5056858;28;20045;-60
2021/10/02 10:45:12;;;;;;;8.77;3.00;;;;;;;;;;5035774;28;20041;-59
2021/10/02 10:47:39;;;;;;;8.52;2.75;;;;;;;;;;5039672;28;20033;-59
2021/10/02 10:50:06;;;;;;;9.15;2.67;;;;;;;;;;5035265;28;20041;-58
2021/10/02 10:52:37;;;;;;;9.82;3.17;;;;;;;;;;5040856;28;20030;-58
2021/10/02 10:55:10;;;;;;;7.22;2.60;;;;;;;;;;5053185;28;20044;-59
2021/10/02 10:57:37;;;;;;;6.90;2.00;;;;;;;;;;5035642;28;20038;-60
2021/10/02 11:00:11;;;;;;;4.82;2.00;;;;;;;;;;5016572;28;20053;-59
2021/10/02 11:02:42;;;;;;;11.57;2.10;;;;;;;;;;5040140;28;20029;-61
2021/10/02 11:05:23;;;;;;;3.90;1.80;;;;;;;;;;5037214;28;20127;-59
2021/10/02 11:07:51;;;;;;;4.65;1.88;;;;;;;;;;5018865;28;20038;-59
2021/10/02 11:10:34;;;;;;;7.60;1.97;;;;;;;;;;5018013;28;20127;-60
2021/10/02 11:13:00;;;;;;;7.93;2.10;;;;;;;;;;5018734;28;20375;-59
2021/10/02 11:15:27;;;;;;;5.50;2.13;;;;;;;;;;5037516;28;20030;-60
2021/10/02 11:17:53;;;;;;;8.13;2.42;;;;;;;;;;5046325;28;20037;-61
2021/10/02 11:20:45;;;;;;;8.45;2.35;;;;;;;;;;5058621;28;20055;-58
2021/10/02 11:23:42;;;;;;;5.45;1.88;;;;;;;;;;5058163;28;20045;-58
2021/10/02 11:26:14;;;;;;;4.22;1.85;;;;;;;;;;5058940;28;20113;-59
2021/10/02 11:28:41;;;;;;;5.82;1.83;;;;;;;;;;5058931;28;20060;-59
2021/10/02 11:31:16;;;;;;;5.95;1.90;;;;;;;;;;5061329;28;20040;-60
2021/10/02 11:33:44;;;;;;;5.78;1.70;;;;;;;;;;5041603;28;20045;-60
2021/10/02 11:36:32;;;;;;;5.20;1.70;;;;;;;;;;5039578;28;20053;-59
2021/10/02 11:39:11;;;;;;;4.53;1.50;;;;;;;;;;5041571;28;20037;-60
2021/10/02 11:41:41;;;;;;;3.58;1.20;;;;;;;;;;5046362;28;20048;-59
2021/10/02 11:44:08;;;;;;;9.50;1.50;;;;;;;;;;5034775;28;20048;-57
2021/10/02 11:46:34;;;;;;;2.70;1.25;;;;;;;;;;5047997;28;20049;-59
2021/10/02 11:49:13;;;;;;;1.73;1.00;;;;;;;;;;5056570;28;20041;-58
2021/10/02 11:51:39;;;;;;;3.35;1.52;;;;;;;;;;5061236;28;20037;-58
2021/10/02 11:54:16;;;;;;;2.70;1.20;;;;;;;;;;5042653;28;20056;-59
2021/10/02 11:56:44;;;;;;;4.30;1.70;;;;;;;;;;5043397;28;20041;-58
2021/10/02 11:59:12;;;;;;;3.95;1.92;;;;;;;;;;5052685;28;20045;-58
2021/10/02 12:01:40;;;;;;;8.27;1.83;;;;;;;;;;5044655;28;20049;-59
2021/10/02 12:04:07;;;;;;;6.13;1.75;;;;;;;;;;5039817;28;20037;-59
2021/10/02 12:06:34;;;;;;;3.28;1.63;;;;;;;;;;5028764;28;20034;-59
2021/10/02 12:09:01;;;;;;;6.57;1.70;;;;;;;;;;5023076;28;20038;-59
2021/10/02 12:11:29;;;;;;;6.70;1.58;;;;;;;;;;5037419;28;20033;-58
2021/10/02 12:13:57;;;;;;;4.85;1.42;;;;;;;;;;5038686;28;20045;-57
2021/10/02 12:16:25;;;;;;;4.22;1.60;;;;;;;;;;5046739;28;20055;-59
2021/10/02 12:18:53;;;;;;;5.57;1.67;;;;;;;;;;5047127;28;20041;-60
2021/10/02 12:21:40;;;;;;;3.67;1.70;;;;;;;;;;5059823;28;20317;-57
2021/10/02 12:24:14;;;;;;;4.20;1.60;;;;;;;;;;5048667;28;20147;-58
2021/10/02 12:26:44;;;;;;;5.53;1.52;;;;;;;;;;5023381;28;20089;-57
2021/10/02 12:29:13;;;;;;;7.97;1.50;;;;;;;;;;5024975;28;20115;-57
2021/10/02 12:31:39;;;;;;;;;;;;;;;;;;5044897;28;20044;-58
2021/10/02 12:34:09;;;;;;;3.65;1.33;;;;;;;;;;5035324;28;19925;-60
2021/10/02 12:36:39;;;;;;;3.35;1.50;;;;;;;;;;5025672;28;20127;-57
2021/10/02 12:39:06;;;;;;;5.85;1.42;;;;;;;;;;5021361;28;20034;-59
2021/10/02 12:41:38;;;;;;;2.90;1.20;;;;;;;;;;5041000;28;20049;-59
2021/10/02 12:44:05;;;;;;;4.90;1.48;;;;;;;;;;5039837;28;20122;-59
2021/10/02 12:46:34;;;;;;;5.38;1.52;;;;;;;;;;5037094;28;20052;-58
2021/10/02 12:49:01;;;;;;;3.97;1.40;;;;;;;;;;5027200;28;20043;-59
2021/10/02 12:51:29;;;;;;;5.63;1.55;;;;;;;;;;5013350;28;20062;-59
2021/10/02 12:53:55;;;;;;;2.28;1.40;;;;;;;;;;5002590;28;20060;-59
2021/10/02 12:56:22;;;;;;;3.60;1.13;;;;;;;;;;5015043;28;20041;-59
2021/10/02 12:58:50;;;;;;;4.53;1.63;;;;;;;;;;5020941;28;20037;-59
2021/10/02 13:01:18;;;;;;;4.00;1.40;;;;;;;;;;5003578;28;20066;-58
2021/10/02 13:03:46;;;;;;;2.28;1.17;;;;;;;;;;5009471;28;20112;-58
2021/10/02 13:06:13;;;;;;;4.53;1.30;;;;;;;;;;5007639;28;20042;-58
2021/10/02 13:08:39;;;;;;;3.10;1.10;;;;;;;;;;5002249;28;20058;-59
2021/10/02 13:11:06;;;;;;;4.38;1.42;;;;;;;;;;5011124;28;20041;-59
2021/10/02 13:13:32;;;;;;;3.58;1.30;;;;;;;;;;5038253;28;20045;-57
2021/10/02 13:15:59;;;;;;;4.00;1.60;;;;;;;;;;5018354;28;20045;-59
2021/10/02 13:18:26;;;;;;;2.60;1.27;;;;;;;;;;5037753;28;20059;-59
2021/10/02 13:20:56;;;;;;;3.20;1.40;;;;;;;;;;5021723;28;20054;-57
2021/10/02 13:23:29;;;;;;;3.13;1.35;;;;;;;;;;5038154;28;20041;-58
2021/10/02 13:25:56;;;;;;;2.50;1.30;;;;;;;;;;5038486;28;20037;-58
2021/10/02 13:28:25;;;;;;;2.58;1.13;;;;;;;;;;5040328;28;20134;-57
2021/10/02 13:30:53;;;;;;;2.80;1.33;;;;;;;;;;5038637;28;20060;-59
2021/10/02 13:33:20;;;;;;;4.80;1.23;;;;;;;;;;5020390;28;20068;-59
2021/10/02 13:35:48;;;;;;;3.45;1.40;;;;;;;;;;5021908;28;20056;-59
2021/10/02 13:38:29;;;;;;;2.75;1.30;;;;;;;;;;5020495;28;20049;-58
2021/10/02 13:40:58;;;;;;;2.95;1.40;;;;;;;;;;5022687;28;20042;-59
2021/10/02 13:43:24;;;;;;;3.55;1.27;;;;;;;;;;5021503;28;20026;-58
2021/10/02 13:45:52;;;;;;;4.20;1.40;;;;;;;;;;5019593;28;20037;-58
2021/10/02 13:48:24;;;;;;;6.37;1.63;;;;;;;;;;5032059;28;20052;-57
2021/10/02 13:50:51;;;;;;;4.25;1.40;;;;;;;;;;5021759;28;20046;-58
2021/10/02 13:53:18;;;;;;;3.00;1.23;;;;;;;;;;5020878;28;20124;-58
2021/10/02 13:55:45;;;;;;;4.60;1.40;;;;;;;;;;5040871;28;20052;-57
2021/10/02 13:58:11;;;;;;;5.40;1.30;;;;;;;;;;5033370;28;20056;-58
2021/10/02 14:00:41;;;;;;;3.60;1.08;;;;;;;;;;5039559;28;20042;-57
2021/10/02 14:03:08;;;;;;;2.83;1.08;;;;;;;;;;5023053;28;20046;-60
2021/10/02 14:05:34;;;;;;;3.50;1.30;;;;;;;;;;5019881;28;20038;-58
2021/10/02 14:08:01;;;;;;;2.17;1.05;;;;;;;;;;5005628;28;20066;-58
2021/10/02 14:10:31;;;;;;;2.40;1.38;;;;;;;;;;5019303;28;20033;-59
2021/10/02 14:12:58;;;;;;;3.22;1.00;;;;;;;;;;5031952;28;20053;-64
2021/10/02 14:15:25;;;;;;;3.28;1.13;;;;;;;;;;5021287;28;20053;-59
2021/10/02 14:17:51;;;;;;;2.08;1.17;;;;;;;;;;5034652;28;20030;-59
2021/10/02 14:20:19;;;;;;;4.40;1.40;;;;;;;;;;5039282;28;20052;-59
2021/10/02 14:22:46;;;;;;;3.33;1.50;;;;;;;;;;5039587;28;20106;-58
2021/10/02 14:25:13;;;;;;;2.45;1.45;;;;;;;;;;5037073;28;20168;-59
2021/10/02 14:27:41;;;;;;;2.00;1.02;;;;;;;;;;5038043;28;20038;-55
2021/10/02 14:30:09;;;;;;;2.90;1.30;;;;;;;;;;5016019;28;20046;-57
2021/10/02 14:32:36;;;;;;;4.20;1.40;;;;;;;;;;5022927;28;20045;-57
2021/10/02 14:35:03;;;;;;;2.60;1.17;;;;;;;;;;5021024;28;20327;-58
2021/10/02 14:37:29;;;;;;;4.22;1.40;;;;;;;;;;5042291;28;20041;-57
2021/10/02 14:39:56;;;;;;;1.45;0.90;;;;;;;;;;5033620;28;20054;-59
2021/10/02 14:42:22;;;;;;;2.35;0.95;;;;;;;;;;5024317;28;20045;-59
2021/10/02 14:44:50;;;;;;;2.45;1.00;;;;;;;;;;5033952;28;20041;-57
2021/10/02 14:47:17;;;;;;;0.98;0.68;;;;;;;;;;5036555;28;20033;-59
2021/10/02 14:49:44;;;;;;;2.85;0.90;;;;;;;;;;5042177;28;20045;-59
2021/10/02 14:52:11;;;;;;;2.40;0.80;;;;;;;;;;5059231;28;20084;-58
2021/10/02 14:54:40;;;;;;;3.00;1.15;;;;;;;;;;5058298;28;20048;-59
2021/10/02 14:57:06;;;;;;;3.20;1.00;;;;;;;;;;5064855;28;20040;-55
2021/10/02 14:59:32;;;;;;;2.60;0.85;;;;;;;;;;5063823;28;20051;-59
2021/10/02 15:02:02;;;;;;;2.13;0.77;;;;;;;;;;5047127;28;20044;-58
2021/10/02 15:04:29;;;;;;;2.47;0.98;;;;;;;;;;5045000;28;20053;-57
2021/10/02 15:06:55;;;;;;;3.83;1.00;;;;;;;;;;5047173;28;20047;-59
2021/10/02 15:09:22;;;;;;;3.15;1.10;;;;;;;;;;5054466;28;20041;-59
2021/10/02 15:11:49;;;;;;;1.45;0.95;;;;;;;;;;5051166;28;20057;-57
2021/10/02 15:14:16;;;;;;;5.25;1.27;;;;;;;;;;5047395;28;20045;-57
2021/10/02 15:16:42;;;;;;;5.40;1.55;;;;;;;;;;5044000;28;20115;-58
2021/10/02 15:19:10;;;;;;;6.47;1.00;;;;;;;;;;5046348;28;20043;-54
2021/10/02 15:21:41;;;;;;;2.55;1.00;;;;;;;;;;5059855;28;20057;-58
2021/10/02 15:24:08;;;;;;;1.42;0.80;;;;;;;;;;5046813;28;20045;-59
2021/10/02 15:26:36;;;;;;;3.88;1.00;;;;;;;;;;5054008;28;20041;-58
2021/10/02 15:29:04;;;;;;;2.72;0.82;;;;;;;;;;5065997;28;20190;-59
2021/10/02 15:31:31;;;;;;;4.33;1.23;;;;;;;;;;5057790;28;20053;-58